Time;durP1;ratioP1;P1;durP2;ratioP2;P2;SDS_P1;SDS_P2;PMS_P1;PMS_P2;Temp;Humidity;BMP_temperature;BMP_pressure;BME280_temperature;BME280_humidity;BME280_pressure;Samples;Min_cycle;Max_cycle;Signal;HPM_P1;HPM_P2
2021/01/13 00:00:22;;;;;;;5.23;4.73;;;5.60;74.60;;;;;;5092091;28;20796;-77
2021/01/13 00:02:48;;;;;;;5.20;4.47;;;5.60;74.60;;;;;;5091031;28;20474;-77
2021/01/13 00:05:15;;;;;;;5.03;4.63;;;5.60;74.70;;;;;;5092292;28;20451;-79
2021/01/13 00:07:43;;;;;;;5.30;4.83;;;5.60;74.80;;;;;;5092516;28;20473;-78
2021/01/13 00:10:11;;;;;;;8.10;4.53;;;5.70;74.90;;;;;;5092347;28;20454;-78
2021/01/13 00:12:38;;;;;;;6.27;4.47;;;5.80;74.90;;;;;;5092644;28;20448;-78
2021/01/13 00:15:06;;;;;;;9.87;5.00;;;5.80;74.80;;;;;;5091825;28;20491;-77
2021/01/13 00:17:33;;;;;;;4.83;4.43;;;5.90;75.60;;;;;;5092321;28;21054;-77
2021/01/13 00:19:59;;;;;;;8.60;5.53;;;6.00;75.00;;;;;;5091603;28;20487;-77
2021/01/13 00:22:26;;;;;;;6.60;5.93;;;6.00;74.70;;;;;;5089240;28;20447;-77
2021/01/13 00:24:53;;;;;;;6.80;5.20;;;6.00;74.50;;;;;;5092319;28;20636;-77
2021/01/13 00:27:21;;;;;;;5.00;4.57;;;6.00;74.50;;;;;;5092039;28;20443;-77
2021/01/13 00:29:49;;;;;;;5.33;4.77;;;5.90;74.40;;;;;;5090639;28;20538;-77
2021/01/13 00:32:15;;;;;;;4.80;4.40;;;5.90;74.60;;;;;;5091717;28;20461;-77
2021/01/13 00:34:42;;;;;;;4.63;4.23;;;5.90;74.60;;;;;;5075893;28;20485;-77
2021/01/13 00:37:08;;;;;;;5.07;4.30;;;5.90;74.70;;;;;;5092352;28;20526;-77
2021/01/13 00:39:35;;;;;;;10.40;5.50;;;6.00;74.70;;;;;;5092091;28;20933;-76
2021/01/13 00:42:03;;;;;;;5.43;4.93;;;6.00;74.80;;;;;;5091874;28;20549;-79
2021/01/13 00:44:30;;;;;;;6.00;4.23;;;6.00;74.80;;;;;;5092246;28;20462;-79
2021/01/13 00:46:56;;;;;;;4.70;4.20;;;6.10;74.70;;;;;;5092021;28;20450;-77
2021/01/13 00:49:23;;;;;;;3.70;3.33;;;6.10;74.50;;;;;;5092055;28;20808;-77
2021/01/13 00:51:49;;;;;;;4.70;4.07;;;6.10;74.40;;;;;;5091265;28;20450;-78
2021/01/13 00:54:16;;;;;;;4.67;4.20;;;6.20;74.40;;;;;;5092150;28;20493;-77
2021/01/13 00:56:44;;;;;;;6.77;3.70;;;6.20;74.30;;;;;;5090250;28;20485;-77
2021/01/13 00:59:13;;;;;;;4.00;3.70;;;6.30;74.30;;;;;;5092266;28;20926;-77
2021/01/13 01:01:40;;;;;;;4.33;4.03;;;6.30;74.20;;;;;;5091787;28;20458;-77
2021/01/13 01:04:07;;;;;;;6.10;3.13;;;6.20;73.90;;;;;;5091884;28;20450;-77
2021/01/13 01:06:34;;;;;;;3.90;3.30;;;6.30;74.30;;;;;;5091894;28;20446;-77
2021/01/13 01:09:01;;;;;;;4.47;3.53;;;6.30;74.50;;;;;;5093866;28;20485;-78
2021/01/13 01:11:31;;;;;;;4.60;3.50;;;6.30;74.40;;;;;;5095256;28;20462;-78
2021/01/13 01:13:58;;;;;;;3.87;3.40;;;6.30;74.30;;;;;;5095445;28;20928;-78
2021/01/13 01:16:30;;;;;;;6.27;5.03;;;6.30;74.40;;;;;;5095455;28;20457;-78
2021/01/13 01:18:56;;;;;;;4.57;4.13;;;6.30;74.30;;;;;;5095514;28;20531;-77
2021/01/13 01:21:23;;;;;;;5.33;4.20;;;6.30;74.20;;;;;;5095206;28;21079;-78
2021/01/13 01:23:49;;;;;;;6.00;3.50;;;6.30;74.30;;;;;;5093639;28;20481;-77
2021/01/13 01:26:16;;;;;;;4.97;3.70;;;6.30;74.30;;;;;;5086808;28;20453;-78
2021/01/13 01:28:42;;;;;;;7.03;3.47;;;6.30;74.10;;;;;;5092075;28;20904;-77
2021/01/13 01:31:09;;;;;;;3.60;3.30;;;6.30;74.10;;;;;;5095230;28;20457;-78
2021/01/13 01:33:37;;;;;;;4.37;3.47;;;6.30;74.10;;;;;;5095279;28;20576;-78
2021/01/13 01:36:03;;;;;;;3.97;3.67;;;6.30;74.10;;;;;;5095399;28;20569;-78
2021/01/13 01:38:30;;;;;;;3.17;2.87;;;6.30;74.10;;;;;;5095139;28;20452;-78
2021/01/13 01:41:03;;;;;;;5.37;3.60;;;6.30;74.10;;;;;;5094586;28;20486;-78
2021/01/13 01:43:31;;;;;;;5.30;3.20;;;6.40;74.20;;;;;;5094290;28;20472;-78
2021/01/13 01:45:58;;;;;;;5.93;4.20;;;6.30;74.20;;;;;;5094488;28;21022;-78
2021/01/13 01:48:31;;;;;;;6.67;3.27;;;6.30;74.10;;;;;;5093394;28;20452;-78
2021/01/13 01:51:00;;;;;;;3.57;2.73;;;6.40;74.10;;;;;;5094600;28;20852;-78
2021/01/13 01:53:48;;;;;;;5.10;3.10;;;6.40;74.10;;;;;;5094868;28;21061;-78
2021/01/13 01:56:23;;;;;;;4.87;3.57;;;6.30;74.10;;;;;;5086617;28;20450;-79
2021/01/13 01:58:58;;;;;;;6.90;2.80;;;6.30;73.70;;;;;;5094290;28;20894;-79
2021/01/13 02:01:31;;;;;;;4.13;2.90;;;6.30;74.00;;;;;;5094119;28;20443;-80
2021/01/13 02:04:12;;;;;;;3.70;2.77;;;6.30;73.90;;;;;;5094460;28;20465;-81
2021/01/13 02:07:12;;;;;;;3.73;3.43;;;6.40;74.10;;;;;;5094663;28;20489;-81
2021/01/13 02:09:39;;;;;;;2.97;2.77;;;6.40;74.20;;;;;;5094263;28;20459;-81
2021/01/13 02:12:10;;;;;;;4.47;3.30;;;6.40;74.00;;;;;;5094677;28;20865;-80
2021/01/13 02:14:40;;;;;;;4.60;3.07;;;6.40;73.90;;;;;;5093057;28;20495;-80
2021/01/13 02:17:09;;;;;;;3.13;2.87;;;6.40;74.00;;;;;;5093834;28;20459;-80
2021/01/13 02:20:08;;;;;;;2.50;2.30;;;6.40;74.00;;;;;;5093433;28;20450;-81
2021/01/13 02:22:53;;;;;;;3.47;3.13;;;6.40;74.00;;;;;;5094179;28;20451;-81
2021/01/13 02:26:05;;;;;;;3.40;2.83;;;6.40;74.60;;;;;;5091412;28;20445;-79
2021/01/13 02:28:44;;;;;;;3.37;2.80;;;6.40;73.90;;;;;;5093919;28;20486;-79
2021/01/13 02:31:48;;;;;;;3.67;3.37;;;6.40;73.90;;;;;;5084486;28;20443;-78
2021/01/13 02:34:33;;;;;;;3.37;3.07;;;6.40;74.10;;;;;;5078460;28;20512;-79
2021/01/13 02:37:42;;;;;;;3.63;3.33;;;6.40;74.20;;;;;;5093738;28;20448;-78
2021/01/13 02:40:16;;;;;;;3.03;2.50;;;6.40;74.20;;;;;;5093688;28;20446;-79
2021/01/13 02:42:58;;;;;;;3.60;2.63;;;6.30;74.10;;;;;;5092440;28;21335;-79
2021/01/13 02:45:27;;;;;;;4.50;2.47;;;6.40;74.20;;;;;;5093799;28;20475;-80
2021/01/13 02:48:12;;;;;;;3.10;2.33;;;6.30;74.00;;;;;;5093538;28;20447;-80
2021/01/13 02:50:56;;;;;;;2.43;2.23;;;6.40;74.20;;;;;;5093587;28;20454;-77
2021/01/13 02:53:55;;;;;;;3.23;2.93;;;6.30;74.00;;;;;;5093372;28;20451;-77
2021/01/13 02:56:33;;;;;;;2.97;2.77;;;6.40;74.20;;;;;;5093504;28;21104;-77
2021/01/13 02:59:07;;;;;;;3.87;2.93;;;6.40;74.00;;;;;;5093206;28;20453;-79
2021/01/13 03:01:39;;;;;;;3.70;3.40;;;6.40;73.70;;;;;;5093032;28;20444;-79
2021/01/13 03:04:09;;;;;;;3.33;2.83;;;6.40;74.60;;;;;;5093822;28;20855;-79
2021/01/13 03:06:42;;;;;;;3.80;3.03;;;6.40;73.90;;;;;;5093483;28;20481;-78
2021/01/13 03:09:10;;;;;;;4.30;2.77;;;6.40;73.90;;;;;;5091468;28;20871;-78
2021/01/13 03:11:38;;;;;;;3.27;2.97;;;6.30;73.80;;;;;;5093206;28;20918;-79
2021/01/13 03:14:26;;;;;;;3.07;2.63;;;6.30;73.80;;;;;;5093279;28;22729;-79
2021/01/13 03:17:27;;;;;;;4.20;2.70;;;6.30;74.00;;;;;;5092974;28;20490;-79
2021/01/13 03:20:31;;;;;;;5.53;2.80;;;6.30;73.90;;;;;;5093226;28;20942;-79
2021/01/13 03:23:05;;;;;;;3.93;2.57;;;6.30;74.00;;;;;;5083848;28;20458;-79
2021/01/13 03:25:38;;;;;;;2.80;2.60;;;6.30;74.00;;;;;;5093319;28;20477;-80
2021/01/13 03:28:07;;;;;;;6.03;2.57;;;6.30;74.10;;;;;;5093481;28;20454;-80
2021/01/13 03:30:35;;;;;;;2.40;2.30;;;6.30;74.00;;;;;;5092380;28;20551;-79
2021/01/13 03:33:20;;;;;;;6.17;2.77;;;6.30;73.90;;;;;;5086446;28;20488;-79
2021/01/13 03:35:53;;;;;;;5.50;3.40;;;6.30;74.00;;;;;;5071563;28;20947;-78
2021/01/13 03:38:20;;;;;;;5.23;2.87;;;6.30;73.80;;;;;;5087615;28;20447;-78
2021/01/13 03:40:49;;;;;;;4.33;3.00;;;6.30;73.60;;;;;;5093174;28;20507;-78
2021/01/13 03:43:21;;;;;;;2.90;2.40;;;6.30;73.60;;;;;;5092074;28;20450;-78
2021/01/13 03:45:49;;;;;;;2.77;2.57;;;6.30;73.70;;;;;;5093048;28;20455;-79
2021/01/13 03:48:40;;;;;;;3.97;2.57;;;6.20;73.60;;;;;;5093237;28;20452;-78
2021/01/13 03:51:16;;;;;;;3.10;2.40;;;6.20;73.60;;;;;;5083089;28;20553;-78
2021/01/13 03:53:44;;;;;;;2.37;2.27;;;6.10;73.50;;;;;;5092396;28;20975;-78
2021/01/13 03:56:21;;;;;;;4.40;2.33;;;6.20;73.70;;;;;;5092775;28;20960;-77
2021/01/13 03:58:51;;;;;;;2.00;1.80;;;6.20;73.50;;;;;;5092104;28;20950;-78
2021/01/13 04:01:42;;;;;;;5.00;2.37;;;6.20;74.30;;;;;;5090744;28;20453;-78
2021/01/13 04:04:24;;;;;;;3.77;2.20;;;6.20;73.50;;;;;;5091794;28;20997;-78
2021/01/13 04:06:59;;;;;;;3.80;2.90;;;6.10;73.30;;;;;;5092769;28;20883;-78
2021/01/13 04:09:26;;;;;;;2.97;2.30;;;6.10;73.20;;;;;;5092877;28;20517;-78
2021/01/13 04:12:07;;;;;;;2.10;1.90;;;6.00;73.10;;;;;;5092541;28;20455;-79
2021/01/13 04:14:48;;;;;;;5.73;2.20;;;6.00;73.10;;;;;;5092228;28;21065;-78
2021/01/13 04:17:16;;;;;;;5.17;2.40;;;5.90;72.90;;;;;;5091605;28;20944;-78
2021/01/13 04:19:44;;;;;;;2.47;2.10;;;5.90;73.10;;;;;;5092351;28;20450;-78
2021/01/13 04:22:13;;;;;;;2.60;1.93;;;5.90;73.30;;;;;;5072324;28;20466;-78
2021/01/13 04:24:41;;;;;;;3.47;2.57;;;5.80;73.30;;;;;;5089675;28;20869;-78
2021/01/13 04:27:10;;;;;;;2.57;2.37;;;5.90;73.40;;;;;;5090593;28;20517;-79
2021/01/13 04:29:37;;;;;;;4.13;2.60;;;5.90;73.40;;;;;;5092205;28;20453;-78
2021/01/13 04:32:04;;;;;;;2.27;2.13;;;5.90;73.40;;;;;;5092384;28;20453;-78
2021/01/13 04:34:31;;;;;;;2.73;2.20;;;5.90;73.20;;;;;;5091927;28;20497;-78
2021/01/13 04:37:03;;;;;;;4.43;1.93;;;5.80;73.00;;;;;;5083623;28;20781;-77
2021/01/13 04:39:30;;;;;;;2.33;2.10;;;5.80;73.20;;;;;;5092400;28;20456;-78
2021/01/13 04:42:05;;;;;;;3.20;2.53;;;5.80;73.20;;;;;;5091816;28;20454;-79
2021/01/13 04:44:34;;;;;;;2.30;2.10;;;5.80;73.20;;;;;;5094816;28;20454;-78
2021/01/13 04:47:09;;;;;;;7.93;2.80;;;5.80;73.20;;;;;;5095952;28;20451;-78
2021/01/13 04:49:37;;;;;;;3.20;2.70;;;5.80;73.20;;;;;;5096165;28;20442;-78
2021/01/13 04:52:18;;;;;;;2.57;2.37;;;5.80;73.20;;;;;;5095792;28;20855;-76
2021/01/13 04:54:47;;;;;;;2.90;2.50;;;5.80;73.10;;;;;;5094239;28;20539;-77
2021/01/13 04:58:02;;;;;;;2.50;2.03;;;5.80;73.20;;;;;;5095957;28;20560;-77
2021/01/13 05:00:56;;;;;;;3.77;3.27;;;5.80;73.20;;;;;;5095190;28;20451;-77
2021/01/13 05:03:42;;;;;;;4.10;2.23;;;5.70;72.90;;;;;;5096178;28;20470;-77
2021/01/13 05:06:46;;;;;;;6.10;2.63;;;5.70;72.80;;;;;;5085577;28;20439;-77
2021/01/13 05:09:15;;;;;;;4.80;2.70;;;5.70;72.90;;;;;;5091064;28;20629;-77
2021/01/13 05:11:46;;;;;;;2.80;2.57;;;5.70;73.10;;;;;;5095948;28;20460;-77
2021/01/13 05:14:13;;;;;;;5.03;3.10;;;5.70;73.10;;;;;;5095480;28;20840;-77
2021/01/13 05:17:01;;;;;;;3.20;2.90;;;5.70;73.10;;;;;;5095037;28;20528;-77
2021/01/13 05:20:10;;;;;;;4.20;2.30;;;5.70;73.20;;;;;;5088930;28;20480;-75
2021/01/13 05:22:39;;;;;;;3.20;3.00;;;5.70;73.30;;;;;;5091602;28;20949;-75
2021/01/13 05:25:09;;;;;;;2.97;2.50;;;5.70;73.10;;;;;;5093056;28;20454;-77
2021/01/13 05:28:20;;;;;;;3.70;3.10;;;5.70;73.20;;;;;;5087983;28;20448;-77
2021/01/13 05:30:49;;;;;;;3.70;2.67;;;5.70;73.10;;;;;;5056954;28;20529;-77
2021/01/13 05:33:17;;;;;;;2.90;2.30;;;5.70;72.90;;;;;;5087805;28;20450;-77
2021/01/13 05:35:46;;;;;;;4.63;2.80;;;5.70;72.90;;;;;;5089822;28;20494;-77
2021/01/13 05:38:19;;;;;;;3.13;2.80;;;5.80;72.70;;;;;;5087607;28;20450;-77
2021/01/13 05:40:50;;;;;;;3.40;3.10;;;5.80;72.60;;;;;;5087987;28;20453;-77
2021/01/13 05:43:18;;;;;;;2.23;2.03;;;5.80;72.60;;;;;;5088230;28;20452;-77
2021/01/13 05:45:45;;;;;;;2.40;2.20;;;5.90;72.50;;;;;;5089829;28;20451;-76
2021/01/13 05:48:16;;;;;;;4.30;3.30;;;5.90;72.60;;;;;;5092324;28;20457;-76
2021/01/13 05:50:44;;;;;;;4.60;3.27;;;5.90;72.20;;;;;;5093404;28;21038;-76
2021/01/13 05:53:11;;;;;;;3.17;2.77;;;5.80;72.20;;;;;;5091194;28;20964;-76
2021/01/13 05:55:47;;;;;;;3.70;3.40;;;5.80;72.30;;;;;;5093950;28;20849;-75
2021/01/13 05:58:14;;;;;;;3.30;3.00;;;5.80;72.40;;;;;;5087591;28;20457;-75
2021/01/13 06:00:41;;;;;;;3.07;2.77;;;5.80;72.30;;;;;;5092532;28;20456;-77
2021/01/13 06:03:12;;;;;;;5.60;2.17;;;5.70;71.90;;;;;;5087746;28;20964;-77
2021/01/13 06:05:50;;;;;;;4.90;2.90;;;5.60;71.90;;;;;;5086931;28;21028;-78
2021/01/13 06:08:17;;;;;;;3.60;2.40;;;5.60;71.80;;;;;;5086890;28;20551;-78
2021/01/13 06:10:45;;;;;;;2.70;2.50;;;5.50;71.80;;;;;;5085956;28;20445;-78
2021/01/13 06:13:19;;;;;;;5.83;2.70;;;5.50;71.90;;;;;;5088797;28;20487;-76
2021/01/13 06:15:46;;;;;;;3.10;2.50;;;5.40;71.80;;;;;;5086212;28;20519;-78
2021/01/13 06:18:22;;;;;;;2.40;2.20;;;5.40;71.70;;;;;;5087154;28;20467;-79
2021/01/13 06:20:49;;;;;;;3.77;2.80;;;5.30;71.60;;;;;;5086145;28;20472;-78
2021/01/13 06:23:17;;;;;;;3.43;2.60;;;5.20;71.70;;;;;;5086329;28;20456;-79
2021/01/13 06:25:45;;;;;;;3.80;2.63;;;5.20;71.90;;;;;;5087653;28;20474;-78
2021/01/13 06:28:32;;;;;;;4.23;3.83;;;5.10;72.10;;;;;;5087716;28;20884;-78
2021/01/13 06:31:07;;;;;;;7.20;3.83;;;5.10;72.20;;;;;;5087395;28;20903;-78
2021/01/13 06:33:35;;;;;;;8.43;4.77;;;5.00;72.30;;;;;;5087121;28;20853;-78
2021/01/13 06:36:21;;;;;;;5.10;3.80;;;5.00;72.30;;;;;;5088418;28;20453;-78
2021/01/13 06:38:55;;;;;;;5.20;4.70;;;5.00;72.50;;;;;;5087943;28;20478;-78
2021/01/13 06:41:22;;;;;;;4.60;3.93;;;5.00;72.80;;;;;;5088173;28;20847;-78
2021/01/13 06:44:03;;;;;;;6.37;4.70;;;5.00;72.80;;;;;;5086446;28;20531;-78
2021/01/13 06:46:32;;;;;;;6.90;5.70;;;5.00;73.50;;;;;;5087142;28;20458;-78
2021/01/13 06:49:13;;;;;;;7.03;4.33;;;4.90;73.30;;;;;;5086729;28;20963;-78
2021/01/13 06:51:43;;;;;;;6.80;5.30;;;5.00;72.80;;;;;;5087297;28;21017;-77
2021/01/13 06:54:14;;;;;;;10.83;5.43;;;4.90;72.60;;;;;;5086611;28;20543;-77
2021/01/13 06:56:49;;;;;;;7.53;5.93;;;4.90;72.80;;;;;;5085144;28;21127;-77
2021/01/13 06:59:17;;;;;;;5.90;5.30;;;4.90;72.70;;;;;;5086061;28;20458;-77
2021/01/13 07:01:54;;;;;;;7.13;4.73;;;4.90;72.80;;;;;;5085229;28;20444;-76
2021/01/13 07:04:22;;;;;;;5.03;3.37;;;4.90;73.70;;;;;;5086153;28;20569;-78
2021/01/13 07:07:02;;;;;;;7.60;5.10;;;4.90;73.10;;;;;;5086974;28;20451;-78
2021/01/13 07:09:36;;;;;;;5.07;4.03;;;4.90;73.00;;;;;;5090582;28;21026;-79
2021/01/13 07:12:11;;;;;;;4.60;4.20;;;4.80;73.00;;;;;;5091863;28;20446;-78
2021/01/13 07:14:40;;;;;;;3.80;2.97;;;4.80;73.00;;;;;;5091842;28;20529;-78
2021/01/13 07:17:09;;;;;;;3.60;3.30;;;4.80;73.00;;;;;;5091720;28;20459;-79
2021/01/13 07:19:37;;;;;;;4.53;4.07;;;4.80;73.10;;;;;;5091603;28;20440;-77
2021/01/13 07:22:07;;;;;;;3.90;3.60;;;4.80;73.10;;;;;;5091273;28;20980;-78
2021/01/13 07:24:33;;;;;;;6.53;3.43;;;4.80;73.10;;;;;;5088885;28;20500;-77
2021/01/13 07:27:00;;;;;;;4.70;3.43;;;4.80;73.00;;;;;;5089322;28;20458;-77
2021/01/13 07:29:28;;;;;;;4.70;3.93;;;4.80;73.10;;;;;;5092793;28;20966;-77
2021/01/13 07:31:57;;;;;;;4.67;4.07;;;4.80;72.90;;;;;;5089727;28;21149;-77
2021/01/13 07:34:33;;;;;;;5.50;4.03;;;4.80;72.80;;;;;;5085527;28;20487;-77
2021/01/13 07:37:02;;;;;;;8.07;4.40;;;4.80;72.80;;;;;;5085889;28;20455;-77
2021/01/13 07:40:13;;;;;;;3.70;3.50;;;4.70;72.70;;;;;;5086754;28;20450;-77
2021/01/13 07:42:41;;;;;;;11.30;4.20;;;4.80;72.90;;;;;;5090673;28;20455;-77
2021/01/13 07:45:10;;;;;;;3.60;3.30;;;4.80;73.10;;;;;;5084655;28;20468;-77
2021/01/13 07:48:24;;;;;;;3.77;3.47;;;4.80;73.20;;;;;;5084087;28;20472;-77
2021/01/13 07:50:51;;;;;;;10.43;4.03;;;4.80;73.20;;;;;;5085867;28;20455;-76
2021/01/13 07:53:26;;;;;;;7.53;5.00;;;4.80;73.10;;;;;;5086853;28;20985;-78
2021/01/13 07:55:59;;;;;;;5.30;4.20;;;4.90;73.10;;;;;;5085374;28;21006;-76
2021/01/13 07:58:30;;;;;;;7.70;4.80;;;4.90;73.10;;;;;;5085641;28;20463;-76
2021/01/13 08:01:35;;;;;;;6.90;4.80;;;4.90;72.90;;;;;;5089658;28;20519;-76
2021/01/13 08:04:59;;;;;;;9.53;6.30;;;4.90;72.80;;;;;;5088728;28;20452;-78
2021/01/13 08:07:38;;;;;;;7.07;4.33;;;5.00;72.90;;;;;;5089765;28;20522;-76
2021/01/13 08:10:06;;;;;;;7.40;4.73;;;5.00;73.10;;;;;;5088624;28;20902;-75
2021/01/13 08:13:25;;;;;;;5.30;4.63;;;5.10;73.50;;;;;;5087558;28;20512;-77
2021/01/13 08:16:56;;;;;;;7.07;5.27;;;5.30;73.80;;;;;;5091508;28;20881;-76
2021/01/13 08:20:04;;;;;;;4.07;3.40;;;5.40;73.80;;;;;;5091365;28;20486;-75
2021/01/13 08:22:31;;;;;;;7.57;5.30;;;5.50;73.50;;;;;;5090780;28;20449;-77
2021/01/13 08:25:11;;;;;;;8.50;4.90;;;5.60;73.50;;;;;;5090705;28;20454;-78
2021/01/13 08:27:38;;;;;;;8.33;5.23;;;5.80;73.50;;;;;;5091189;28;20468;-78
2021/01/13 08:30:09;;;;;;;6.50;6.00;;;5.90;73.30;;;;;;5088921;28;20874;-78
2021/01/13 08:32:41;;;;;;;5.63;5.10;;;6.00;73.10;;;;;;5090475;28;20814;-78
2021/01/13 08:35:10;;;;;;;6.93;5.53;;;6.00;72.20;;;;;;5090839;28;20584;-77
2021/01/13 08:37:37;;;;;;;16.93;7.20;;;6.00;71.70;;;;;;5091194;28;20954;-80
2021/01/13 08:40:26;;;;;;;12.00;6.10;;;5.90;71.50;;;;;;5093660;28;20453;-76
2021/01/13 08:43:06;;;;;;;10.37;6.70;;;5.90;71.70;;;;;;5091135;28;20457;-76
2021/01/13 08:45:34;;;;;;;14.10;5.77;;;5.90;72.10;;;;;;5094501;28;20473;-76
2021/01/13 08:48:07;;;;;;;5.37;4.90;;;6.00;72.50;;;;;;5082658;28;20462;-75
2021/01/13 08:50:36;;;;;;;9.47;5.53;;;6.10;72.50;;;;;;5093514;28;20457;-77
2021/01/13 08:53:04;;;;;;;7.70;4.90;;;6.10;72.00;;;;;;5088957;28;20461;-76
2021/01/13 08:55:31;;;;;;;6.43;4.77;;;6.20;71.60;;;;;;5095363;28;21024;-76
2021/01/13 08:58:05;;;;;;;5.20;3.97;;;6.20;70.70;;;;;;5092257;28;20519;-77
2021/01/13 09:00:33;;;;;;;8.90;4.50;;;6.20;70.40;;;;;;5075333;28;20503;-77
2021/01/13 09:03:10;;;;;;;8.40;6.23;;;6.10;70.40;;;;;;5087784;28;20453;-77
2021/01/13 09:05:39;;;;;;;6.30;4.43;;;6.20;70.40;;;;;;5094881;28;20462;-77
2021/01/13 09:08:09;;;;;;;4.23;3.87;;;6.10;70.20;;;;;;5086509;28;20474;-78
2021/01/13 09:10:53;;;;;;;6.87;4.60;;;6.10;70.10;;;;;;5094914;28;20442;-78
2021/01/13 09:13:35;;;;;;;5.57;4.63;;;6.20;70.40;;;;;;5094973;28;20454;-78
2021/01/13 09:16:33;;;;;;;7.50;5.13;;;6.20;70.10;;;;;;5094855;28;20843;-78
2021/01/13 09:19:05;;;;;;;5.73;5.23;;;6.30;70.50;;;;;;5094612;28;20465;-78
2021/01/13 09:21:33;;;;;;;5.47;4.23;;;6.30;69.90;;;;;;5095440;28;20454;-77
2021/01/13 09:24:01;;;;;;;6.40;4.53;;;6.40;69.90;;;;;;5086708;28;20867;-79
2021/01/13 09:26:31;;;;;;;6.40;4.40;;;6.40;70.10;;;;;;5094613;28;20457;-80
2021/01/13 09:29:00;;;;;;;6.63;4.47;;;6.50;70.00;;;;;;5094634;28;20450;-80
2021/01/13 09:31:27;;;;;;;9.17;5.23;;;6.60;70.00;;;;;;5095569;28;20442;-79
2021/01/13 09:33:54;;;;;;;4.87;4.17;;;6.70;69.30;;;;;;5094403;28;20456;-79
2021/01/13 09:36:21;;;;;;;12.70;5.77;;;6.70;68.90;;;;;;5094861;28;20458;-79
2021/01/13 09:38:50;;;;;;;5.23;4.70;;;6.80;69.00;;;;;;5090085;28;20443;-80
2021/01/13 09:41:24;;;;;;;17.43;5.30;;;6.80;68.30;;;;;;5092323;28;20512;-79
2021/01/13 09:44:08;;;;;;;5.20;4.07;;;6.90;68.30;;;;;;5093601;28;20514;-79
2021/01/13 09:46:35;;;;;;;12.03;4.30;;;6.90;68.20;;;;;;5089897;28;20478;-78
2021/01/13 09:49:05;;;;;;;4.57;4.17;;;6.80;67.60;;;;;;5094315;28;20456;-78
2021/01/13 09:51:34;;;;;;;7.30;4.10;;;6.80;67.80;;;;;;5085437;28;20515;-79
2021/01/13 09:54:04;;;;;;;4.47;3.37;;;6.80;68.20;;;;;;5093882;28;20549;-78
2021/01/13 09:56:32;;;;;;;5.57;3.67;;;6.80;68.10;;;;;;5094152;28;20446;-79
2021/01/13 09:59:01;;;;;;;3.53;3.23;;;6.80;66.90;;;;;;5093766;28;20454;-79
2021/01/13 10:01:29;;;;;;;5.03;3.13;;;6.80;67.30;;;;;;5091149;28;20450;-79
2021/01/13 10:03:58;;;;;;;4.03;3.23;;;6.90;67.50;;;;;;5090368;28;20481;-78
2021/01/13 10:06:27;;;;;;;3.50;3.13;;;7.00;67.60;;;;;;5094349;28;20448;-79
2021/01/13 10:08:55;;;;;;;5.47;3.40;;;7.10;67.70;;;;;;5093082;28;20475;-79
2021/01/13 10:11:25;;;;;;;4.30;2.70;;;7.20;67.60;;;;;;5089427;28;20959;-79
2021/01/13 10:14:20;;;;;;;2.67;2.47;;;7.20;67.50;;;;;;5080033;28;20451;-80
2021/01/13 10:16:48;;;;;;;3.97;3.40;;;7.30;67.10;;;;;;5090280;28;20462;-79
2021/01/13 10:19:15;;;;;;;4.33;2.80;;;7.30;67.00;;;;;;5077446;28;20565;-79
2021/01/13 10:21:43;;;;;;;6.07;4.10;;;7.30;67.50;;;;;;5089849;28;20520;-77
2021/01/13 10:24:25;;;;;;;5.43;3.73;;;7.40;66.80;;;;;;5092953;28;20932;-78
2021/01/13 10:26:55;;;;;;;8.63;3.60;;;7.50;66.60;;;;;;5089525;28;20524;-79
2021/01/13 10:29:23;;;;;;;3.20;2.83;;;7.50;66.30;;;;;;5084776;28;20470;-79
2021/01/13 10:31:51;;;;;;;12.33;2.97;;;7.50;65.70;;;;;;5087203;28;20461;-79
2021/01/13 10:34:18;;;;;;;4.57;3.73;;;7.40;65.70;;;;;;5087837;28;20537;-80
2021/01/13 10:36:46;;;;;;;9.30;4.20;;;7.40;66.10;;;;;;5091921;28;20545;-79
2021/01/13 10:39:18;;;;;;;4.67;2.87;;;7.30;66.00;;;;;;5087027;28;20462;-78
2021/01/13 10:41:47;;;;;;;6.40;3.30;;;7.30;66.10;;;;;;5091865;28;20973;-81
2021/01/13 10:44:17;;;;;;;5.90;3.00;;;7.30;65.90;;;;;;5093763;28;20454;-80
2021/01/13 10:46:46;;;;;;;4.97;3.20;;;7.30;66.30;;;;;;5092237;28;20944;-79
2021/01/13 10:49:20;;;;;;;6.90;3.20;;;7.40;66.20;;;;;;5091143;28;20446;-80
2021/01/13 10:52:13;;;;;;;7.10;3.30;;;7.40;66.00;;;;;;5088042;28;20452;-80
2021/01/13 10:54:46;;;;;;;5.00;2.63;;;7.60;66.10;;;;;;5093377;28;20484;-80
2021/01/13 10:57:35;;;;;;;9.33;3.20;;;7.70;65.60;;;;;;5092361;28;20456;-81
2021/01/13 11:00:17;;;;;;;3.40;2.27;;;7.80;65.50;;;;;;5093125;28;20443;-78
2021/01/13 11:02:52;;;;;;;2.80;2.60;;;7.90;64.50;;;;;;5087870;28;20449;-78
2021/01/13 11:05:23;;;;;;;4.53;2.40;;;7.90;64.40;;;;;;5092270;28;20531;-79
2021/01/13 11:07:57;;;;;;;5.40;2.90;;;7.90;63.00;;;;;;5093338;28;20472;-79
2021/01/13 11:10:25;;;;;;;8.40;2.87;;;7.90;63.10;;;;;;5092826;28;20455;-79
2021/01/13 11:13:01;;;;;;;3.67;2.53;;;8.00;63.10;;;;;;5090086;28;20461;-78
2021/01/13 11:15:29;;;;;;;4.30;3.00;;;8.10;63.60;;;;;;5091564;28;20996;-78
2021/01/13 11:17:57;;;;;;;3.03;2.77;;;8.20;63.70;;;;;;5092610;28;20450;-79
2021/01/13 11:20:32;;;;;;;6.40;2.93;;;8.30;63.30;;;;;;5092813;28;20961;-80
2021/01/13 11:23:23;;;;;;;3.73;2.77;;;8.50;62.50;;;;;;5092150;28;20644;-79
2021/01/13 11:25:50;;;;;;;5.20;2.73;;;9.00;62.30;;;;;;5083066;28;20454;-78
2021/01/13 11:28:16;;;;;;;4.63;2.70;;;9.30;60.80;;;;;;5092059;28;20470;-78
2021/01/13 11:30:50;;;;;;;5.93;3.00;;;9.30;59.60;;;;;;5092532;28;20456;-78
2021/01/13 11:33:17;;;;;;;3.43;2.63;;;9.20;59.20;;;;;;5092274;28;20510;-79
2021/01/13 11:35:45;;;;;;;5.23;2.57;;;9.20;59.40;;;;;;5088737;28;20525;-78
2021/01/13 11:38:51;;;;;;;2.53;2.33;;;9.00;58.40;;;;;;5092625;28;20945;-78
2021/01/13 11:41:44;;;;;;;2.87;2.67;;;8.80;58.80;;;;;;5089535;28;20490;-77
2021/01/13 11:44:40;;;;;;;3.23;2.70;;;8.70;59.60;;;;;;5087120;28;20449;-78
2021/01/13 11:47:14;;;;;;;6.43;2.40;;;8.70;59.90;;;;;;5083203;28;20451;-79
2021/01/13 11:49:49;;;;;;;4.60;2.80;;;8.70;59.20;;;;;;5089706;28;20453;-78
2021/01/13 11:52:27;;;;;;;5.37;2.40;;;8.60;59.40;;;;;;5084733;28;20449;-78
2021/01/13 11:54:55;;;;;;;3.03;2.07;;;8.60;59.10;;;;;;5091703;28;21005;-77
2021/01/13 11:57:29;;;;;;;5.50;2.70;;;8.50;58.50;;;;;;5082121;28;20453;-78
2021/01/13 12:00:21;;;;;;;2.80;2.23;;;8.50;58.60;;;;;;5090170;28;20458;-80
2021/01/13 12:03:00;;;;;;;4.10;2.33;;;8.40;59.00;;;;;;5089253;28;20945;-78
2021/01/13 12:05:29;;;;;;;2.97;1.80;;;8.50;59.50;;;;;;5092684;28;20455;-77
2021/01/13 12:08:12;;;;;;;4.27;2.60;;;8.50;59.10;;;;;;5089997;28;20473;-79
2021/01/13 12:10:41;;;;;;;4.43;3.00;;;8.60;59.20;;;;;;5091572;28;20455;-81
2021/01/13 12:13:12;;;;;;;2.63;2.30;;;8.60;59.20;;;;;;5086770;28;20972;-80
2021/01/13 12:15:53;;;;;;;4.17;2.00;;;8.60;58.70;;;;;;5089117;28;20496;-78
2021/01/13 12:18:23;;;;;;;1.70;1.60;;;8.70;58.80;;;;;;5089859;28;20942;-78
2021/01/13 12:20:54;;;;;;;5.00;1.90;;;8.70;58.50;;;;;;5089345;28;20798;-78
2021/01/13 12:23:41;;;;;;;3.23;1.67;;;8.70;58.10;;;;;;5090053;28;20520;-78
2021/01/13 12:26:15;;;;;;;2.13;1.40;;;8.80;58.50;;;;;;5089194;28;20467;-79
2021/01/13 12:28:43;;;;;;;2.13;1.70;;;8.80;57.80;;;;;;5085491;28;20486;-77
2021/01/13 12:31:10;;;;;;;2.87;1.53;;;8.80;57.90;;;;;;5085494;28;20447;-75
2021/01/13 12:33:47;;;;;;;1.97;1.37;;;8.80;58.00;;;;;;5086565;28;20458;-76
2021/01/13 12:36:17;;;;;;;6.10;2.20;;;8.80;58.00;;;;;;5079078;28;20497;-78
2021/01/13 12:38:46;;;;;;;2.10;1.30;;;8.90;57.80;;;;;;5076916;28;20450;-80
2021/01/13 12:41:18;;;;;;;1.93;1.33;;;8.90;57.00;;;;;;5085161;28;20465;-78
2021/01/13 12:43:45;;;;;;;4.90;1.40;;;8.90;56.70;;;;;;5089640;28;20454;-78
2021/01/13 12:46:12;;;;;;;6.23;2.00;;;8.90;56.50;;;;;;5085134;28;20607;-79
2021/01/13 12:48:39;;;;;;;2.57;1.50;;;8.90;56.60;;;;;;5085056;28;20450;-78
2021/01/13 12:51:06;;;;;;;2.27;1.50;;;8.90;55.40;;;;;;5084934;28;20450;-78
2021/01/13 12:53:33;;;;;;;2.17;1.70;;;8.80;55.80;;;;;;5085490;28;20453;-79
2021/01/13 12:55:59;;;;;;;1.90;1.03;;;8.80;56.30;;;;;;5085092;28;20884;-79
2021/01/13 12:58:26;;;;;;;2.47;1.53;;;8.80;56.20;;;;;;5084297;28;20985;-79
2021/01/13 13:00:53;;;;;;;4.00;1.47;;;8.80;55.60;;;;;;5084592;28;20459;-79
2021/01/13 13:03:19;;;;;;;3.47;1.50;;;8.80;54.80;;;;;;5083454;28;20508;-79
2021/01/13 13:05:47;;;;;;;6.00;1.20;;;8.80;54.60;;;;;;5088249;28;20452;-79
2021/01/13 13:08:13;;;;;;;1.93;1.23;;;8.60;54.60;;;;;;5087587;28;20485;-80
2021/01/13 13:10:40;;;;;;;1.23;1.07;;;8.50;54.80;;;;;;5090707;28;20450;-81
2021/01/13 13:13:06;;;;;;;4.23;1.87;;;8.40;55.30;;;;;;5088396;28;20452;-80
2021/01/13 13:15:33;;;;;;;3.03;1.10;;;8.40;55.40;;;;;;5089561;28;20545;-81
2021/01/13 13:18:00;;;;;;;1.33;0.70;;;8.50;55.70;;;;;;5091050;28;20793;-81
2021/01/13 13:20:26;;;;;;;2.10;1.00;;;8.50;54.90;;;;;;5088939;28;20461;-80
2021/01/13 13:22:54;;;;;;;2.17;1.40;;;8.60;54.40;;;;;;5093561;28;20589;-79
2021/01/13 13:25:20;;;;;;;2.27;1.43;;;8.60;54.40;;;;;;5084834;28;20447;-79
2021/01/13 13:27:47;;;;;;;2.40;1.03;;;8.50;53.80;;;;;;5093497;28;20446;-77
2021/01/13 13:30:14;;;;;;;3.63;1.73;;;8.40;53.80;;;;;;5090258;28;20509;-78
2021/01/13 13:32:40;;;;;;;4.23;1.50;;;8.40;54.10;;;;;;5086508;28;20450;-78